createdAt,value
2019-05-15T00:04:19.779Z,11.5
2019-05-15T00:09:18.975Z,11.6
2019-05-15T00:14:13.621Z,11.9
2019-05-15T00:19:10.253Z,11.5
2019-05-15T00:24:12.694Z,11.7
2019-05-15T00:29:12.569Z,11.5
2019-05-15T00:34:01.434Z,11.2
2019-05-15T00:38:59.031Z,11.5
2019-05-15T00:43:55.093Z,11
2019-05-15T00:48:52.413Z,11.1
2019-05-15T00:53:49.001Z,11.4
2019-05-15T00:58:48.065Z,11.3
2019-05-15T01:03:43.320Z,11.5
2019-05-15T01:08:40.097Z,11.4
2019-05-15T01:13:38.780Z,11.4
2019-05-15T01:18:34.326Z,11.7
2019-05-15T01:23:30.909Z,11.4
2019-05-15T01:28:28.993Z,11.8
2019-05-15T01:33:25.485Z,11.2
2019-05-15T01:38:22.284Z,11.3
2019-05-15T01:43:19.258Z,11.3
2019-05-15T01:48:18.726Z,11.8
2019-05-15T01:53:13.379Z,11.3
2019-05-15T01:58:10.069Z,11.4
2019-05-15T02:03:09.410Z,8.5
2019-05-15T02:08:03.862Z,11.4
2019-05-15T02:13:01.352Z,10.9
2019-05-15T02:17:58.760Z,11.2
2019-05-15T02:22:55.147Z,11.1
2019-05-15T02:27:52.126Z,11.1
2019-05-15T02:32:50.170Z,11.8
2019-05-15T02:37:48.849Z,11.8
2019-05-15T02:42:44.121Z,11.3
2019-05-15T02:47:40.840Z,11.4
2019-05-15T02:52:39.056Z,11.4
2019-05-15T02:57:33.974Z,11.3
2019-05-15T03:02:30.915Z,11.4
2019-05-15T03:07:29.433Z,11.8
2019-05-15T03:12:25.378Z,11.1
2019-05-15T03:17:22.137Z,11.2
2019-05-15T03:22:19.742Z,11
2019-05-15T03:27:19.403Z,11.2
2019-05-15T03:32:24.697Z,11.2
2019-05-15T03:37:11.944Z,11
2019-05-15T03:42:09.549Z,11.2
2019-05-15T03:47:04.438Z,11.1
2019-05-15T03:52:01.520Z,11.2
2019-05-15T03:56:58.798Z,11.6
2019-05-15T04:01:54.693Z,11
2019-05-15T04:06:51.568Z,11.1
2019-05-15T04:11:49.617Z,11.1
2019-05-15T04:16:45.244Z,11.1
2019-05-15T04:21:44.957Z,11
2019-05-15T04:26:39.708Z,11
2019-05-15T04:31:51.505Z,11
2019-05-15T04:36:33.222Z,7.9
2019-05-15T04:41:30.382Z,11
2019-05-15T04:46:29.415Z,11.1
2019-05-15T04:51:24.017Z,10.8
2019-05-15T04:56:20.720Z,10.9
2019-05-15T05:01:19.912Z,11.1
2019-05-15T05:06:14.769Z,11.7
2019-05-15T05:11:11.474Z,11.2
2019-05-15T05:16:09.445Z,11.3
2019-05-15T05:21:07.599Z,11.3
2019-05-15T05:26:00.570Z,11.2
2019-05-15T05:30:58.728Z,11.8
2019-05-15T05:35:54.629Z,11.3
2019-05-15T05:40:51.493Z,11.4
2019-05-15T05:45:49.075Z,11.4
2019-05-15T05:50:45.195Z,11.4
2019-05-15T05:55:41.978Z,11.3
2019-05-15T06:00:39.291Z,11.4
2019-05-15T06:05:35.332Z,11.6
2019-05-15T06:10:32.298Z,11.4
2019-05-15T06:15:29.761Z,12
2019-05-15T06:20:28.236Z,11.6
2019-05-15T06:25:23.658Z,11.3
2019-05-15T06:30:26.639Z,11.6
2019-05-15T06:35:19.264Z,11.6
2019-05-15T06:40:13.814Z,11.6
2019-05-15T06:45:11.111Z,11.6
2019-05-15T06:50:08.546Z,11.6
2019-05-15T06:55:05.342Z,12.2
2019-05-15T07:00:01.911Z,11.8
2019-05-15T07:04:58.981Z,11.8
2019-05-15T07:09:58.146Z,11.7
2019-05-15T07:14:52.801Z,11.9
2019-05-15T07:19:49.625Z,12
2019-05-15T07:24:47.751Z,11.3
2019-05-15T07:29:44.053Z,10
2019-05-15T07:34:40.963Z,12.6
2019-05-15T07:39:38.370Z,12.2
2019-05-15T07:44:35.740Z,12.2
2019-05-15T07:49:32.978Z,10.7
2019-05-15T07:54:30.380Z,12.3
2019-05-15T07:59:27.930Z,12.8
2019-05-15T08:04:29.318Z,12.9
2019-05-15T08:09:21.543Z,12.9
2019-05-15T08:14:18.486Z,13
2019-05-15T08:19:14.808Z,12.9
2019-05-15T08:24:11.634Z,13
2019-05-15T08:29:08.862Z,13.1
2019-05-15T08:34:13.338Z,13.2
2019-05-15T08:39:03.010Z,12.4
2019-05-15T08:43:59.762Z,13.2
2019-05-15T08:48:58.274Z,13.2
2019-05-15T08:53:53.455Z,12.6
2019-05-15T08:58:50.653Z,13.1
2019-05-15T09:03:48.851Z,13.3
2019-05-15T09:08:44.233Z,13.3
2019-05-15T09:13:42.941Z,13.4
2019-05-15T09:18:39.321Z,13.5
2019-05-15T09:23:38.527Z,13.6
2019-05-15T09:28:33.572Z,13
2019-05-15T09:33:30.519Z,13.9
2019-05-15T09:38:28.853Z,13.9
2019-05-15T09:43:24.573Z,14.1
2019-05-15T09:48:21.980Z,14.1
2019-05-15T09:53:19.467Z,14.3
2019-05-15T09:58:20.073Z,14.4
2019-05-15T10:03:13.894Z,14.5
2019-05-15T10:08:10.888Z,14.6
2019-05-15T10:13:08.990Z,14.7
2019-05-15T10:18:06.056Z,14.7
2019-05-15T10:23:02.939Z,14.8
2019-05-15T10:27:59.711Z,14.8
2019-05-15T10:32:56.888Z,14.8
2019-05-15T10:37:53.794Z,14.8
2019-05-15T10:42:51.190Z,14.8
2019-05-15T10:47:49.540Z,14.8
2019-05-15T10:52:44.483Z,14.4
2019-05-15T10:57:43.580Z,14.8
2019-05-15T11:02:39.311Z,14.8
2019-05-15T11:07:35.049Z,14.9
2019-05-15T11:12:30.956Z,15
2019-05-15T11:17:28.616Z,15
2019-05-15T11:22:24.436Z,14.9
2019-05-15T11:27:21.755Z,15
2019-05-15T11:32:18.442Z,15.1
2019-05-15T11:37:15.379Z,15.1
2019-05-15T11:42:12.460Z,15.1
2019-05-15T11:47:09.560Z,14.2
2019-05-15T11:52:08.595Z,15.1
2019-05-15T11:57:03.490Z,15.1
2019-05-15T12:02:00.241Z,15.1
2019-05-15T12:07:01.601Z,15.2
2019-05-15T12:11:54.165Z,15.2
2019-05-15T12:17:04.991Z,15.2
2019-05-15T12:21:48.812Z,15.2
2019-05-15T12:26:44.907Z,14.8
2019-05-15T12:31:41.434Z,15.2
2019-05-15T12:36:51.613Z,15
2019-05-15T13:01:24.065Z,15
2019-05-15T13:06:21.130Z,15
2019-05-15T13:11:18.354Z,14.2
2019-05-15T13:16:14.918Z,14.7
2019-05-15T13:21:11.990Z,14.8
2019-05-15T13:26:22.876Z,14.6
2019-05-15T13:31:05.944Z,14.8
2019-05-15T13:36:02.577Z,14.8
2019-05-15T13:40:59.574Z,14.5
2019-05-15T13:45:58.022Z,14.6
2019-05-15T13:50:53.777Z,13.9
2019-05-15T13:55:49.770Z,14.5
2019-05-15T14:00:48.957Z,14.6
2019-05-15T14:05:45.134Z,14.2
2019-05-15T14:10:40.619Z,14.7
2019-05-15T14:15:38.389Z,14.7
2019-05-15T14:20:34.977Z,14.8
2019-05-15T14:25:33.001Z,14.8
2019-05-15T14:30:29.559Z,14.9
2019-05-15T14:35:25.945Z,14.4
2019-05-15T14:40:22.890Z,14.9
2019-05-15T14:45:19.761Z,14.4
2019-05-15T14:50:16.458Z,14.3
2019-05-15T14:55:13.271Z,14.9
2019-05-15T15:00:10.607Z,14.3
2019-05-15T15:05:08.987Z,15.1
2019-05-15T15:10:04.873Z,15.2
2019-05-15T15:15:02.036Z,15.2
2019-05-15T15:20:00.123Z,15.2
2019-05-15T15:24:55.851Z,15.4
2019-05-15T15:29:52.849Z,15.4
2019-05-15T15:34:50.212Z,15
2019-05-15T15:39:48.141Z,15.4
2019-05-15T15:44:43.891Z,15.5
2019-05-15T15:49:41.111Z,15.6
2019-05-15T15:54:39.436Z,15.6
2019-05-15T15:59:35.319Z,15.8
2019-05-15T16:04:31.523Z,15.8
2019-05-15T16:09:28.665Z,15.8
2019-05-15T16:14:25.631Z,15.9
2019-05-15T16:19:21.970Z,15.9
2019-05-15T16:24:21.561Z,15.9
2019-05-15T16:29:16.224Z,15.4
2019-05-15T16:34:12.152Z,15.8
2019-05-15T16:39:11.735Z,15.8
2019-05-15T16:44:08.415Z,15.7
2019-05-15T16:49:03.484Z,15.7
2019-05-15T16:54:00.426Z,15
2019-05-15T16:58:59.498Z,15.6
2019-05-15T17:03:54.392Z,15.6
2019-05-15T17:08:51.163Z,15.5
2019-05-15T17:13:48.287Z,15.4
2019-05-15T17:18:44.880Z,15.1
2019-05-15T17:23:41.121Z,15.3
2019-05-15T17:28:38.295Z,15
2019-05-15T17:33:35.041Z,14.4
2019-05-15T17:38:31.658Z,14.9
2019-05-15T17:43:28.861Z,14.9
2019-05-15T17:48:25.165Z,14.9
2019-05-15T17:53:22.468Z,14.9
2019-05-15T17:58:19.449Z,12.4
2019-05-15T18:03:15.997Z,14.7
2019-05-15T18:08:12.608Z,14.7
2019-05-15T18:13:09.619Z,14.6
2019-05-15T18:18:09.386Z,14.7
2019-05-15T18:23:03.509Z,14.7
2019-05-15T18:28:00.363Z,14.2
2019-05-15T18:32:58.699Z,14.2
2019-05-15T18:37:54.884Z,14.6
2019-05-15T18:42:52.005Z,14.6
2019-05-15T18:47:49.322Z,14.6
2019-05-15T18:52:48.638Z,14
2019-05-15T18:57:43.112Z,14.5
2019-05-15T19:02:40.416Z,14.4
2019-05-15T19:07:38.251Z,14.4
2019-05-15T19:12:34.419Z,14.4
2019-05-15T19:17:31.283Z,14.4
2019-05-15T19:22:28.632Z,14.4
2019-05-15T19:27:28.032Z,14.4
2019-05-15T19:32:23.183Z,14.4
2019-05-15T19:37:20.450Z,13.5
2019-05-15T19:42:18.082Z,14.3
2019-05-15T19:47:14.253Z,14.1
2019-05-15T19:52:11.425Z,14.2
2019-05-15T19:57:08.144Z,14.2
2019-05-15T20:02:05.562Z,13.8
2019-05-15T20:07:02.358Z,14.2
2019-05-15T20:11:59.115Z,14.2
2019-05-15T20:16:55.923Z,14.1
2019-05-15T20:21:53.235Z,14.1
2019-05-15T20:26:50.022Z,14.1
2019-05-15T20:31:48.322Z,14.1
2019-05-15T20:36:42.920Z,14.1
2019-05-15T20:41:39.863Z,14.1
2019-05-15T20:46:38.958Z,14.1
2019-05-15T20:51:35.837Z,13.6
2019-05-15T20:56:30.573Z,14.1
2019-05-15T21:01:28.706Z,14.1
2019-05-15T21:06:24.385Z,14
2019-05-15T21:11:21.462Z,14
2019-05-15T21:16:18.827Z,13.5
2019-05-15T21:21:15.288Z,14
2019-05-15T21:26:11.832Z,14
2019-05-15T21:31:09.057Z,13.9
2019-05-15T21:36:09.935Z,13.9
2019-05-15T21:41:07.969Z,13.4
2019-05-15T21:46:02.543Z,13.8
2019-05-15T21:50:59.349Z,13.7
2019-05-15T21:55:58.341Z,13.2
2019-05-15T22:00:53.222Z,13.2
2019-05-15T22:05:49.389Z,13.6
2019-05-15T22:10:48.157Z,13.5
2019-05-15T22:15:43.636Z,13.6
2019-05-15T22:20:40.543Z,13.6
2019-05-15T22:25:38.503Z,13.6
2019-05-15T22:30:34.226Z,13.6
2019-05-15T22:35:30.970Z,13.5
2019-05-15T22:40:28.880Z,13.5
2019-05-15T22:45:24.280Z,13.4
2019-05-15T22:50:20.987Z,13.6
2019-05-15T22:55:18.212Z,13.6
2019-05-15T23:00:14.975Z,13.6
2019-05-15T23:05:23.733Z,13.4
2019-05-15T23:10:08.850Z,13.5
2019-05-15T23:15:04.366Z,13.5
2019-05-15T23:20:01.871Z,13
2019-05-15T23:24:58.881Z,13.5
2019-05-15T23:29:59.546Z,13.5
2019-05-15T23:34:58.368Z,13.4
2019-05-15T23:39:53.371Z,13.1
2019-05-15T23:44:49.980Z,13.3
2019-05-15T23:49:48.474Z,13.3
2019-05-15T23:54:44.013Z,12.8
2019-05-15T23:59:40.729Z,12.8
